Terminal Aerodrome Forecast
Issued by NWS Wakefield, VA

Home | Current Version | Previous Version | Text Only | Print | Product List | Glossary On
Versions: 1 2 3 4 5 6 7 8 9 10 11 12 13
000
FTUS41 KAKQ 270539
TAFECG
TAF
KECG 270539Z 2706/2806 21012KT P6SM BKN250
     FM271000 01014G22KT P6SM BKN015 OVC040
     FM271200 01014G22KT 4SM -RA OVC008
     FM280000 35012KT 5SM -RA SCT015 OVC040=

USA.gov is the U.S. government's official web portal to all federal, state and local government web resources and services.